M I D A S
Marine Information and Data Acquisition System
Tripno 359 of the Zeeleeuw from 2002-11-18 08:06:18 to 2002-11-18 15:35:00
Back to CruiseResearch ActivitiesStationsMapUnderway DataData graphs

EquipmentUnitsComment
TimeDGPSUTC
LatitudeDGPSDM.mWGS84
LongitudeDGPSDM.mWGS84
HeadingGyrodeg 
SOGDGPSknotsSpeed over ground
COGDGPSdegCourse over ground
DepthEcho soundermeters200 kHz
Missing or incorrect values are displayed as -999
Navigation data collected by the RV Zeeleeuw from 2002-11-18 08:06:18 to 2002-11-18 15:35:00
                                                                                    Next 1000 lines
Time Latitude Longitude Heading SOG COG Depth
2002-11-18 08:06:28 51°14.704 2°54.441 337.2 12.2 328.1 10.1
2002-11-18 08:06:33 51°14.718 2°54.427 338.2 12.2 329.2 10.1
2002-11-18 08:06:38 51°14.733 2°54.414 338.8 12.2 329.9 10.2
2002-11-18 08:06:42 51°14.745 2°54.404 339.3 12.2 330.5 10.1
2002-11-18 08:06:48 51°14.763 2°54.388 339.7 12.2 330.7 10
2002-11-18 08:06:53 51°14.777 2°54.375 339.7 12.2 331 10.1
2002-11-18 08:06:58 51°14.792 2°54.361 339.5 12.2 330.8 10
2002-11-18 08:07:02 51°14.804 2°54.35 339.5 12.2 330.7 10
2002-11-18 08:07:08 51°14.822 2°54.335 339.3 12.2 330.6 9.9
2002-11-18 08:07:13 51°14.836 2°54.322 339.3 12.2 330.6 9.8
2002-11-18 08:07:18 51°14.851 2°54.308 339.3 12.1 330.6 9.6
2002-11-18 08:07:23 51°14.866 2°54.295 339.3 12.2 330.5 9.4
2002-11-18 08:07:28 51°14.88 2°54.281 339.3 12.2 330.5 9.4
2002-11-18 08:07:33 51°14.895 2°54.268 339.7 12.2 330.4 9.2
2002-11-18 08:07:38 51°14.909 2°54.255 340 12.1 330.6 9.2
2002-11-18 08:07:42 51°14.921 2°54.245 340.2 12.1 330.9 9.1
2002-11-18 08:07:48 51°14.939 2°54.23 340.3 12.1 331.1 8.9
2002-11-18 08:07:53 51°14.953 2°54.216 340.3 12.1 331.3 8.8
2002-11-18 08:07:58 51°14.968 2°54.204 340.5 12 331.4 8.7
2002-11-18 08:08:02 51°14.979 2°54.193 340.2 12 331.2 8.8
2002-11-18 08:08:08 51°14.997 2°54.178 340 12 331 8.8
2002-11-18 08:08:13 51°15.011 2°54.164 339.8 12 330.7 8.8
2002-11-18 08:08:18 51°15.026 2°54.151 339.8 12.1 330.5 8.9
2002-11-18 08:08:22 51°15.038 2°54.14 339.7 12.1 330.3 9
2002-11-18 08:08:28 51°15.055 2°54.125 339.5 12.1 330.3 9
2002-11-18 08:08:33 51°15.069 2°54.111 339.5 12.1 330.1 9.1
2002-11-18 08:08:38 51°15.084 2°54.098 339.5 12.1 330.1 9.1
2002-11-18 08:08:42 51°15.096 2°54.087 339.5 12.2 330 9.3
2002-11-18 08:08:48 51°15.113 2°54.071 339.7 12.2 330.2 9.3
2002-11-18 08:08:52 51°15.125 2°54.06 339.8 12.2 330.2 9.2
2002-11-18 08:08:58 51°15.143 2°54.044 339.8 12.2 330.2 9.3
2002-11-18 08:09:02 51°15.154 2°54.033 339.8 12.1 330.2 9.4
2002-11-18 08:09:08 51°15.172 2°54.017 339.8 12.2 330.2 9.4
2002-11-18 08:09:13 51°15.186 2°54.004 340 12.2 330.3 9.5
2002-11-18 08:09:18 51°15.201 2°53.991 340.2 12.1 330.4 9.5
2002-11-18 08:09:21 51°15.21 2°53.983 340.2 12.1 330.7 9.5
2002-11-18 08:09:28 51°15.231 2°53.964 340.2 12.2 330.6 9.8
2002-11-18 08:09:33 51°15.245 2°53.951 340.2 12.2 330.7 9.7
2002-11-18 08:09:37 51°15.257 2°53.94 339.8 12.2 330.5 9.7
2002-11-18 08:09:43 51°15.274 2°53.925 340 12.2 330.5 9.8
2002-11-18 08:09:48 51°15.289 2°53.911 339.8 12.1 330.4 9.8
2002-11-18 08:09:53 51°15.303 2°53.898 339.8 12.2 330.3 9.7
2002-11-18 08:09:58 51°15.318 2°53.884 339.8 12.2 330.2 10
2002-11-18 08:10:02 51°15.33 2°53.874 340.2 12.2 330.5 9.9
2002-11-18 08:10:08 51°15.347 2°53.859 340.2 12.1 330.7 10
2002-11-18 08:10:13 51°15.362 2°53.845 340.2 12 330.9 10.1
2002-11-18 08:10:18 51°15.377 2°53.832 339.8 12.1 330.6 10.1
2002-11-18 08:10:22 51°15.389 2°53.821 340 12.2 330.5 10.2
2002-11-18 08:10:28 51°15.406 2°53.805 339.8 12.2 330.4 10.3
2002-11-18 08:10:33 51°15.421 2°53.792 339.5 12.2 330.2 10.3
2002-11-18 08:10:38 51°15.435 2°53.778 339.3 12.2 329.9 10.4
2002-11-18 08:10:43 51°15.45 2°53.765 339.3 12.2 329.8 10.4
2002-11-18 08:10:48 51°15.464 2°53.751 339.5 12.1 329.7 10.5
2002-11-18 08:10:53 51°15.479 2°53.738 339.5 12.2 329.8 10.6
2002-11-18 08:10:58 51°15.494 2°53.724 339.7 12.2 329.9 10.6
2002-11-18 08:11:02 51°15.506 2°53.713 339.8 12.3 329.9 10.7
2002-11-18 08:11:08 51°15.523 2°53.696 339.7 12.2 329.6 10.8
2002-11-18 08:11:13 51°15.537 2°53.682 339.5 12.2 329.5 10.9
2002-11-18 08:11:18 51°15.552 2°53.668 339.3 12.2 329.3 10.9
2002-11-18 08:11:22 51°15.564 2°53.657 339.5 12.2 329.4 11
2002-11-18 08:11:28 51°15.582 2°53.64 339.7 12.2 329.6 11.1
2002-11-18 08:11:33 51°15.596 2°53.627 339.8 12.3 329.5 11.1
2002-11-18 08:11:38 51°15.611 2°53.613 339.8 12.3 329.6 11.2
2002-11-18 08:11:42 51°15.623 2°53.603 339.8 12.2 329.5 11.2
2002-11-18 08:11:48 51°15.64 2°53.586 340 12.2 329.7 11.3
2002-11-18 08:11:53 51°15.655 2°53.573 340.2 12.2 330 11.4
2002-11-18 08:11:58 51°15.67 2°53.559 340 12.3 330 11.4
2002-11-18 08:12:02 51°15.681 2°53.549 340 12.2 330.1 11.5
2002-11-18 08:12:08 51°15.699 2°53.532 340 12.2 330 11.5
2002-11-18 08:12:13 51°15.714 2°53.519 339.8 12.2 329.9 11.6
2002-11-18 08:12:18 51°15.728 2°53.505 339.5 12.2 329.6 11.6
2002-11-18 08:12:23 51°15.743 2°53.491 339.5 12.2 329.5 11.7
2002-11-18 08:12:28 51°15.757 2°53.478 339.7 12.2 329.6 11.7
2002-11-18 08:12:33 51°15.772 2°53.464 339.8 12.2 329.7 11.8
2002-11-18 08:12:38 51°15.787 2°53.451 340.2 12.2 330.2 11.8
2002-11-18 08:12:42 51°15.798 2°53.44 340.2 12.3 330.3 11.8
2002-11-18 08:12:48 51°15.816 2°53.424 339.8 12.2 330.1 11.9
2002-11-18 08:12:53 51°15.83 2°53.41 339.7 12.2 329.8 11.9
2002-11-18 08:12:58 51°15.845 2°53.397 339.5 12.2 329.4 12
2002-11-18 08:13:02 51°15.856 2°53.386 339.7 12.1 329.5 12
2002-11-18 08:13:08 51°15.874 2°53.37 340 12.1 329.6 12.1
2002-11-18 08:13:13 51°15.888 2°53.356 339.8 12.1 329.8 12.1
2002-11-18 08:13:18 51°15.903 2°53.343 339.5 12.1 329.5 12.1
2002-11-18 08:13:23 51°15.918 2°53.329 339.3 12.1 329.4 12.1
2002-11-18 08:13:28 51°15.932 2°53.315 339.5 12.2 329.4 12.2
2002-11-18 08:13:33 51°15.947 2°53.302 340 12.2 329.7 12.2
2002-11-18 08:13:37 51°15.958 2°53.291 339.8 12.1 329.7 12.2
2002-11-18 08:13:42 51°15.973 2°53.278 340.2 12.2 330 12.2
2002-11-18 08:13:48 51°15.99 2°53.261 340.2 12.2 330.1 12.3
2002-11-18 08:13:53 51°16.005 2°53.248 340 12.2 330 12.3
2002-11-18 08:13:58 51°16.019 2°53.234 340 12.2 330 12.3
2002-11-18 08:14:03 51°16.034 2°53.221 339.7 12.2 329.9 12.4
2002-11-18 08:14:08 51°16.048 2°53.207 339.7 12.2 329.5 12.4
2002-11-18 08:14:13 51°16.063 2°53.193 339.8 12.2 329.6 12.5
2002-11-18 08:14:18 51°16.077 2°53.18 339.7 12.2 329.7 12.5
2002-11-18 08:14:22 51°16.089 2°53.17 340 12.2 330 12.5
2002-11-18 08:14:28 51°16.107 2°53.154 340.3 12.2 330.2 12.5
2002-11-18 08:14:33 51°16.121 2°53.14 340.2 12.2 330.6 12.6
2002-11-18 08:14:38 51°16.136 2°53.127 340.2 12.2 330.5 12.6
2002-11-18 08:14:42 51°16.148 2°53.116 340.2 12.1 330.3 12.6
2002-11-18 08:14:48 51°16.165 2°53.1 339.8 12.2 330.2 12.6
2002-11-18 08:14:53 51°16.18 2°53.087 339.7 12.2 330 12.7
2002-11-18 08:14:58 51°16.195 2°53.073 339.5 12.2 329.7 12.6
2002-11-18 08:15:02 51°16.206 2°53.062 340 12.2 329.9 12.7
2002-11-18 08:15:08 51°16.224 2°53.046 340.3 12.1 330.3 12.7
2002-11-18 08:15:13 51°16.239 2°53.033 340.5 12.1 330.8 12.7
2002-11-18 08:15:18 51°16.253 2°53.019 340 12.1 330.7 12.7
2002-11-18 08:15:22 51°16.265 2°53.009 340 12.2 330.6 12.7
2002-11-18 08:15:28 51°16.282 2°52.993 339.8 12.1 330.5 12.7
2002-11-18 08:15:33 51°16.297 2°52.98 340.3 12.1 330.8 12.7
2002-11-18 08:15:38 51°16.312 2°52.967 340.3 12 331 12.7
2002-11-18 08:15:42 51°16.324 2°52.957 340.3 12.1 330.9 12.7
2002-11-18 08:15:47 51°16.338 2°52.944 340 12.1 330.7 12.7
2002-11-18 08:15:53 51°16.356 2°52.928 339.5 12.1 330.2 12.7
2002-11-18 08:15:58 51°16.37 2°52.914 339.5 12.1 330.2 12.6
2002-11-18 08:16:02 51°16.382 2°52.903 339.5 12.1 330.1 12.6
2002-11-18 08:16:08 51°16.4 2°52.887 339.5 12.2 330 12.6
2002-11-18 08:16:13 51°16.415 2°52.873 339.8 12.3 330.3 12.6
2002-11-18 08:16:18 51°16.43 2°52.86 340 12.4 330.4 12.5
2002-11-18 08:16:22 51°16.442 2°52.849 339.8 12.6 330.6 12.5
2002-11-18 08:16:28 51°16.46 2°52.832 339.8 12.7 330.6 12.4
2002-11-18 08:16:33 51°16.475 2°52.818 339.5 12.7 330.5 12.3
2002-11-18 08:16:38 51°16.491 2°52.804 339.3 12.7 330.3 12.2
2002-11-18 08:16:42 51°16.503 2°52.793 339.5 12.7 330.1 12.1
2002-11-18 08:16:48 51°16.521 2°52.777 340.7 12.7 331.1 12.1
2002-11-18 08:16:53 51°16.537 2°52.763 341.5 12.8 331.7 12
2002-11-18 08:16:58 51°16.553 2°52.751 342.3 12.7 332.5 11.9
2002-11-18 08:17:03 51°16.568 2°52.738 342.7 12.7 333.1 11.9
2002-11-18 08:17:08 51°16.584 2°52.726 343 12.7 333.7 11.8
2002-11-18 08:17:13 51°16.6 2°52.713 343.2 12.8 333.8 11.7
2002-11-18 08:17:18 51°16.616 2°52.7 343.3 12.8 334.1 11.6
2002-11-18 08:17:23 51°16.632 2°52.688 343.5 12.9 334.2 11.5
2002-11-18 08:17:28 51°16.648 2°52.676 344 12.8 334.8 11.4
2002-11-18 08:17:33 51°16.664 2°52.665 344.7 12.8 335.1 11.2
2002-11-18 08:17:38 51°16.68 2°52.653 345.3 12.7 335.9 11.1
2002-11-18 08:17:42 51°16.693 2°52.644 345.7 12.7 336 10.9
2002-11-18 08:17:48 51°16.712 2°52.63 345.7 12.7 336.5 10.7
2002-11-18 08:17:53 51°16.728 2°52.619 345.5 12.7 336.3 10.4
2002-11-18 08:17:58 51°16.744 2°52.608 345.5 12.7 336.2 10
2002-11-18 08:18:02 51°16.756 2°52.599 345.2 12.6 336 10
2002-11-18 08:18:08 51°16.775 2°52.585 345.2 12.5 335.9 10.2
2002-11-18 08:18:13 51°16.791 2°52.574 345 12.5 335.8 10.4
2002-11-18 08:18:18 51°16.807 2°52.562 344.5 12.5 335.5 10.2
2002-11-18 08:18:22 51°16.82 2°52.552 344.7 12.7 335.2 10.1
2002-11-18 08:18:28 51°16.839 2°52.539 345.2 12.7 335.4 10.1
2002-11-18 08:18:33 51°16.855 2°52.528 346 12.6 336.1 10.3
2002-11-18 08:18:38 51°16.871 2°52.517 346.3 12.6 336.6 10.4
2002-11-18 08:18:43 51°16.887 2°52.506 346.5 12.6 336.9 10.4
2002-11-18 08:18:48 51°16.903 2°52.495 346.5 12.6 337.1 10.5
2002-11-18 08:18:53 51°16.919 2°52.484 346.2 12.6 337 10.3
2002-11-18 08:18:58 51°16.935 2°52.473 346.2 12.6 336.9 10
2002-11-18 08:19:02 51°16.947 2°52.464 346.5 12.5 336.7 9.8
2002-11-18 08:19:08 51°16.966 2°52.452 347 12.4 337 9.8
2002-11-18 08:19:13 51°16.982 2°52.441 347.2 12.4 337.3 9.8
2002-11-18 08:19:18 51°16.998 2°52.43 347.2 12.4 337.5 10
2002-11-18 08:19:22 51°17.011 2°52.422 347.2 12.4 337.6 10
2002-11-18 08:19:28 51°17.03 2°52.409 347.2 12.4 337.6 10
2002-11-18 08:19:33 51°17.046 2°52.398 347.2 12.6 337.4 10.1
2002-11-18 08:19:38 51°17.062 2°52.387 347.2 12.6 337.4 10.2
2002-11-18 08:19:42 51°17.075 2°52.379 347.2 12.5 337.5 10.2
2002-11-18 08:19:48 51°17.094 2°52.366 347.2 12.5 337.3 10.3
2002-11-18 08:19:53 51°17.111 2°52.355 347 12.6 337.4 10.3
2002-11-18 08:19:58 51°17.127 2°52.344 347 12.6 337.5 10.4
2002-11-18 08:20:02 51°17.14 2°52.336 348.3 12.6 337.9 10.5
2002-11-18 08:20:07 51°17.156 2°52.327 349 12.6 338.9 10.5
2002-11-18 08:20:13 51°17.175 2°52.315 349.5 12.6 339.5 10.4
2002-11-18 08:20:17 51°17.189 2°52.307 350.2 12.6 339.9 10.6
2002-11-18 08:20:22 51°17.205 2°52.299 350.5 12.6 340.6 10.6
2002-11-18 08:20:28 51°17.225 2°52.287 350.5 12.5 340.9 10.7
2002-11-18 08:20:33 51°17.241 2°52.278 350.7 12.6 341 10.7
2002-11-18 08:20:38 51°17.258 2°52.269 350.5 12.5 340.9 10.8
2002-11-18 08:20:42 51°17.271 2°52.261 350.5 12.6 340.7 10.8
2002-11-18 08:20:48 51°17.29 2°52.25 350.2 12.6 340.6 10.8
2002-11-18 08:20:53 51°17.307 2°52.241 350.2 12.6 340.5 10.8
2002-11-18 08:20:58 51°17.323 2°52.231 350.2 12.6 340.3 10.8
2002-11-18 08:21:02 51°17.336 2°52.224 350.2 12.6 340.2 10.8
2002-11-18 08:21:08 51°17.355 2°52.212 350 12.6 340.4 10.9
2002-11-18 08:21:13 51°17.372 2°52.203 350.2 12.5 340.5 10.9
2002-11-18 08:21:18 51°17.388 2°52.194 350.2 12.5 340.5 10.7
2002-11-18 08:21:22 51°17.401 2°52.186 350.2 12.4 340.6 10.8
2002-11-18 08:21:28 51°17.421 2°52.175 350.2 12.4 340.5 10.9
2002-11-18 08:21:33 51°17.437 2°52.165 350 12.5 340.4 10.8
2002-11-18 08:21:38 51°17.453 2°52.156 350.2 12.5 340.2 10.8
2002-11-18 08:21:42 51°17.466 2°52.148 350.3 12.5 340.3 10.8
2002-11-18 08:21:48 51°17.486 2°52.137 350 12.5 340.3 10.9
2002-11-18 08:21:53 51°17.502 2°52.127 350.2 12.5 340.1 10.8
2002-11-18 08:21:58 51°17.519 2°52.118 350.3 12.5 340.2 10.9
2002-11-18 08:22:03 51°17.535 2°52.108 350.2 12.5 340.1 10.8
2002-11-18 08:22:08 51°17.551 2°52.099 350.3 12.5 340.1 10.8
2002-11-18 08:22:13 51°17.567 2°52.089 350.3 12.5 340.2 10.8
2002-11-18 08:22:18 51°17.584 2°52.08 350.3 12.5 340.3 10.9
2002-11-18 08:22:23 51°17.6 2°52.071 350.2 12.5 340.2 10.9
2002-11-18 08:22:28 51°17.616 2°52.061 350.2 12.5 340.2 10.8
2002-11-18 08:22:33 51°17.633 2°52.051 350 12.5 340.1 10.7
2002-11-18 08:22:38 51°17.649 2°52.041 349.8 12.5 339.7 10.7
2002-11-18 08:22:42 51°17.662 2°52.033 350 12.5 339.5 10.5
2002-11-18 08:22:48 51°17.681 2°52.022 349.8 12.6 339.7 10.7
2002-11-18 08:22:53 51°17.697 2°52.013 349.8 12.5 339.7 10.6
2002-11-18 08:22:58 51°17.713 2°52.003 350 12.5 339.6 10.7
2002-11-18 08:23:02 51°17.726 2°51.995 348.3 12.5 338.9 10.6
2002-11-18 08:23:08 51°17.745 2°51.982 347.5 12.5 337.6 10.7
2002-11-18 08:23:13 51°17.761 2°51.97 346.7 12.6 336.6 10.7
2002-11-18 08:23:18 51°17.777 2°51.959 346.2 12.6 335.9 10.7
2002-11-18 08:23:22 51°17.79 2°51.949 346 12.6 335.5 10.7
2002-11-18 08:23:28 51°17.809 2°51.936 345.7 12.6 335.4 10.8
2002-11-18 08:23:33 51°17.824 2°51.923 345.3 12.6 334.9 10.7
2002-11-18 08:23:38 51°17.84 2°51.911 345.3 12.6 334.5 10.7
2002-11-18 08:23:42 51°17.853 2°51.902 345.2 12.6 334.3 10.8
2002-11-18 08:23:47 51°17.868 2°51.89 345.3 12.6 334.3 10.7
2002-11-18 08:23:53 51°17.888 2°51.876 345.7 12.6 334.4 10.7
2002-11-18 08:23:58 51°17.904 2°51.864 345.5 12.6 334.4 10.7
2002-11-18 08:24:02 51°17.916 2°51.854 345.7 12.6 334.6 10.8
2002-11-18 08:24:08 51°17.935 2°51.84 346.3 12.6 335 10.8
2002-11-18 08:24:13 51°17.951 2°51.828 346.5 12.6 335.5 10.8
2002-11-18 08:24:18 51°17.967 2°51.817 346.5 12.6 335.4 10.8
2002-11-18 08:24:21 51°17.977 2°51.81 346.2 12.6 335.2 10.9
2002-11-18 08:24:28 51°17.999 2°51.793 345.7 12.7 334.9 11
2002-11-18 08:24:33 51°18.015 2°51.781 345.3 12.6 334.5 11.1
2002-11-18 08:24:38 51°18.031 2°51.769 345.7 12.6 334.4 11
2002-11-18 08:24:42 51°18.043 2°51.759 345.8 12.6 334.6 11.1
2002-11-18 08:24:48 51°18.062 2°51.745 346.2 12.6 334.8 11.1
2002-11-18 08:24:53 51°18.078 2°51.733 346 12.6 334.8 11.2
2002-11-18 08:24:58 51°18.094 2°51.721 346.2 12.6 334.8 11.4
2002-11-18 08:25:02 51°18.107 2°51.712 346.2 12.6 334.9 11.5
2002-11-18 08:25:08 51°18.126 2°51.697 346.2 12.7 334.8 11.4
2002-11-18 08:25:13 51°18.142 2°51.685 346.3 12.7 334.9 11.7
2002-11-18 08:25:18 51°18.158 2°51.673 346.3 12.7 335 11.7
2002-11-18 08:25:22 51°18.171 2°51.664 346 12.6 334.9 11.6
2002-11-18 08:25:28 51°18.19 2°51.649 345.8 12.7 334.6 11.8
2002-11-18 08:25:33 51°18.206 2°51.637 346 12.7 334.6 12
2002-11-18 08:25:38 51°18.222 2°51.625 345.7 12.7 334.5 12
2002-11-18 08:25:42 51°18.234 2°51.615 345.7 12.7 334.3 12
2002-11-18 08:25:48 51°18.254 2°51.6 345.5 12.8 334 12.3
2002-11-18 08:25:53 51°18.269 2°51.588 345.5 12.8 334 12.2
2002-11-18 08:25:58 51°18.285 2°51.576 345.5 12.7 334.1 12.4
2002-11-18 08:26:02 51°18.298 2°51.566 345.7 12.7 333.9 12.4
2002-11-18 08:26:08 51°18.317 2°51.551 345.7 12.7 334.1 12.6
2002-11-18 08:26:13 51°18.333 2°51.539 345.8 12.8 334.1 12.6
2002-11-18 08:26:17 51°18.346 2°51.529 345.8 12.8 334.3 12.7
2002-11-18 08:26:22 51°18.362 2°51.516 346.2 12.8 334.4 12.8
2002-11-18 08:26:27 51°18.378 2°51.504 346.2 12.8 334.5 13
2002-11-18 08:26:33 51°18.397 2°51.49 346 12.7 334.6 13.1
2002-11-18 08:26:38 51°18.413 2°51.477 345.8 12.7 334.5 13.2
2002-11-18 08:26:41 51°18.422 2°51.47 346 12.8 334.2 13.4
2002-11-18 08:26:48 51°18.445 2°51.453 346 12.8 334.1 13.4
2002-11-18 08:26:53 51°18.46 2°51.44 345.8 12.8 334.2 13.6
2002-11-18 08:26:58 51°18.476 2°51.428 345.8 12.8 334.1 13.5
2002-11-18 08:27:03 51°18.492 2°51.415 346 12.8 334.1 13.8
2002-11-18 08:27:07 51°18.505 2°51.405 346 12.8 333.6 13.8
2002-11-18 08:27:13 51°18.524 2°51.39 346 12.8 333.8 13.9
2002-11-18 08:27:18 51°18.54 2°51.378 345.8 12.8 333.9 14
2002-11-18 08:27:22 51°18.553 2°51.368 345.8 12.7 333.7 14.1
2002-11-18 08:27:27 51°18.569 2°51.356 346 12.8 333.6 14.2
2002-11-18 08:27:33 51°18.588 2°51.341 346.2 12.8 333.9 14.2
2002-11-18 08:27:38 51°18.603 2°51.328 346 12.8 334 14.3
2002-11-18 08:27:42 51°18.616 2°51.318 346.2 12.8 333.5 14.3
2002-11-18 08:27:48 51°18.635 2°51.303 346 12.7 333.5 14.5
2002-11-18 08:27:53 51°18.651 2°51.29 345.8 12.7 333.5 14.6
2002-11-18 08:27:58 51°18.667 2°51.277 345.7 12.7 333.2 14.4
2002-11-18 08:28:03 51°18.682 2°51.265 345.8 12.7 333.2 14.6
2002-11-18 08:28:08 51°18.698 2°51.252 345.8 12.7 333.2 14.6
2002-11-18 08:28:13 51°18.714 2°51.239 345.7 12.7 333.2 14.6
2002-11-18 08:28:17 51°18.727 2°51.229 345.7 12.8 333 14.7
2002-11-18 08:28:23 51°18.745 2°51.214 345.7 12.8 332.9 14.8
2002-11-18 08:28:28 51°18.761 2°51.201 345.5 12.7 332.8 14.8
2002-11-18 08:28:33 51°18.777 2°51.188 345.7 12.7 332.5 14.8
2002-11-18 08:28:37 51°18.789 2°51.177 345.7 12.7 332.4 14.9
2002-11-18 08:28:42 51°18.805 2°51.164 345.5 12.7 332.4 15
2002-11-18 08:28:47 51°18.821 2°51.151 345.8 12.7 332.6 15
2002-11-18 08:28:53 51°18.84 2°51.136 346.2 12.8 333.1 15
2002-11-18 08:28:58 51°18.856 2°51.123 345.8 12.8 333.3 15.2
2002-11-18 08:29:02 51°18.869 2°51.113 345.8 12.8 333.2 15.2
2002-11-18 08:29:08 51°18.887 2°51.097 346 12.9 333.2 15.2
2002-11-18 08:29:13 51°18.903 2°51.085 346.2 12.8 333.2 15.2
2002-11-18 08:29:18 51°18.919 2°51.072 346.3 12.8 333.2 15.3
2002-11-18 08:29:22 51°18.932 2°51.062 346.2 12.8 333.2 15.3
2002-11-18 08:29:28 51°18.951 2°51.046 346 12.8 333 15.4
2002-11-18 08:29:33 51°18.967 2°51.034 345.8 12.9 333.1 15.4
2002-11-18 08:29:38 51°18.983 2°51.02 345.7 12.9 333.6 15.3
2002-11-18 08:29:42 51°18.995 2°51.01 345.8 12.9 333 15.3
2002-11-18 08:29:47 51°19.011 2°50.997 345.7 12.9 333.1 15.4
2002-11-18 08:29:53 51°19.03 2°50.982 346 12.8 332.8 15.3
2002-11-18 08:29:58 51°19.046 2°50.969 346 12.8 333.2 15.4
2002-11-18 08:30:03 51°19.062 2°50.956 345.7 12.8 333 15.4
2002-11-18 08:30:08 51°19.078 2°50.944 345.8 12.8 333.2 15.3
2002-11-18 08:30:13 51°19.094 2°50.931 346 12.9 333.4 15.4
2002-11-18 08:30:18 51°19.11 2°50.918 346.3 12.9 333.7 15.3
2002-11-18 08:30:21 51°19.119 2°50.911 346.3 12.8 334 15.3
2002-11-18 08:30:28 51°19.142 2°50.894 346.3 12.8 334.3 15.3
2002-11-18 08:30:33 51°19.158 2°50.881 346.2 12.9 334.1 15.2
2002-11-18 08:30:38 51°19.174 2°50.868 345.7 12.9 333.8 15.2
2002-11-18 08:30:42 51°19.187 2°50.858 345.3 12.9 333.4 15.1
2002-11-18 08:30:47 51°19.203 2°50.845 345.7 12.9 333.2 15
2002-11-18 08:30:53 51°19.221 2°50.83 345.5 12.9 333.2 14.9
2002-11-18 08:30:57 51°19.234 2°50.82 345.5 12.9 333 14.9
2002-11-18 08:31:02 51°19.25 2°50.807 345.7 12.9 333.3 14.9
2002-11-18 08:31:08 51°19.269 2°50.791 345.8 12.9 333.3 15
2002-11-18 08:31:13 51°19.285 2°50.778 345.8 12.9 333.5 14.9
2002-11-18 08:31:18 51°19.301 2°50.766 346 12.9 333.3 14.6
2002-11-18 08:31:22 51°19.314 2°50.755 346 12.9 333.5 14.6
2002-11-18 08:31:27 51°19.33 2°50.742 346 12.9 333.2 14.3
2002-11-18 08:31:33 51°19.349 2°50.727 345.8 12.9 333.4 14.2
2002-11-18 08:31:38 51°19.365 2°50.714 345.7 12.9 333.2 14
2002-11-18 08:31:42 51°19.378 2°50.704 345.7 12.9 333.1 13.6
2002-11-18 08:31:48 51°19.397 2°50.689 346 12.9 333.3 13.5
2002-11-18 08:31:53 51°19.413 2°50.676 346.2 12.8 334 13.4
2002-11-18 08:31:58 51°19.429 2°50.664 346.3 12.9 334.3 13
2002-11-18 08:32:03 51°19.445 2°50.652 346.2 12.9 334.6 13.1
2002-11-18 08:32:08 51°19.461 2°50.639 345.8 12.8 334.1 13
2002-11-18 08:32:13 51°19.476 2°50.626 345.8 12.7 333.8 12.8
2002-11-18 08:32:18 51°19.492 2°50.613 345.8 12.7 333.8 12.9
2002-11-18 08:32:21 51°19.502 2°50.606 345.8 12.8 333.8 12.8
2002-11-18 08:32:28 51°19.524 2°50.589 345.8 12.8 333.8 12.7
2002-11-18 08:32:32 51°19.536 2°50.579 345.8 12.8 333.9 12.7
2002-11-18 08:32:38 51°19.555 2°50.564 345.7 12.8 334.1 12.5
2002-11-18 08:32:43 51°19.571 2°50.552 346 12.8 334.2 12.3
2002-11-18 08:32:48 51°19.587 2°50.54 346.2 12.8 334.3 12.2
2002-11-18 08:32:53 51°19.603 2°50.528 346 12.7 334.3 12.4
2002-11-18 08:32:58 51°19.619 2°50.516 346.2 12.7 334.6 12.2
2002-11-18 08:33:02 51°19.632 2°50.506 346.2 12.7 334.6 12.4
2002-11-18 08:33:08 51°19.651 2°50.491 346.2 12.8 334.9 12.5
2002-11-18 08:33:13 51°19.667 2°50.479 346 12.8 334.9 12.6
2002-11-18 08:33:18 51°19.683 2°50.467 346.3 12.8 335.1 12.9
2002-11-18 08:33:22 51°19.696 2°50.457 346.2 12.7 335.3 13.1
2002-11-18 08:33:28 51°19.715 2°50.443 346.2 12.8 335.3 13.3
2002-11-18 08:33:33 51°19.731 2°50.431 346.2 12.8 335.2 13.4
2002-11-18 08:33:38 51°19.747 2°50.419 345.8 12.8 335.1 13.6
2002-11-18 08:33:43 51°19.763 2°50.407 345.7 12.8 334.9 13.7
2002-11-18 08:33:48 51°19.78 2°50.395 345.7 12.9 334.9 13.9
2002-11-18 08:33:53 51°19.796 2°50.382 345.5 13 334.7 14
2002-11-18 08:33:58 51°19.813 2°50.37 345.7 13.1 334.8 14.1
2002-11-18 08:34:03 51°19.83 2°50.358 345.8 13.2 335.2 14.2
2002-11-18 08:34:07 51°19.843 2°50.348 345.7 13.2 335.3 14.3
2002-11-18 08:34:13 51°19.863 2°50.333 345.5 13.3 335 14.5
2002-11-18 08:34:18 51°19.879 2°50.32 345.5 13.3 334.9 14.6
2002-11-18 08:34:23 51°19.896 2°50.308 345.7 13.3 334.8 14.6
2002-11-18 08:34:27 51°19.91 2°50.298 346 13.3 334.9 14.7
2002-11-18 08:34:33 51°19.93 2°50.283 345.8 13.3 335.3 14.7
2002-11-18 08:34:37 51°19.943 2°50.273 346 13.3 335 14.6
2002-11-18 08:34:41 51°19.957 2°50.263 345.8 13.3 335.2 14.8
2002-11-18 08:34:48 51°19.98 2°50.246 345.8 13.3 335.1 14.8
2002-11-18 08:34:53 51°19.997 2°50.233 345.8 13.3 335 15.1
2002-11-18 08:34:58 51°20.013 2°50.221 345.7 13.3 335 15.3
2002-11-18 08:35:02 51°20.027 2°50.21 345.5 13.3 334.6 15.5
2002-11-18 08:35:08 51°20.047 2°50.195 345.5 13.3 334.3 15.8
2002-11-18 08:35:13 51°20.064 2°50.182 345.3 13.4 334.4 16.2
2002-11-18 08:35:18 51°20.08 2°50.169 345.5 13.5 334.6 16.4
2002-11-18 08:35:21 51°20.091 2°50.162 345.7 13.4 334.7 16.6
2002-11-18 08:35:28 51°20.114 2°50.144 345.5 13.5 334.4 16.9
2002-11-18 08:35:33 51°20.131 2°50.13 345.2 13.5 334.3 17
2002-11-18 08:35:38 51°20.148 2°50.117 345.5 13.5 334.1 17.4
2002-11-18 08:35:42 51°20.161 2°50.107 345.5 13.5 334.1 17.6
2002-11-18 08:35:48 51°20.181 2°50.091 345.7 13.5 334 17.8
2002-11-18 08:35:53 51°20.197 2°50.078 345.7 13.5 334 18.1
2002-11-18 08:35:58 51°20.214 2°50.065 345.5 13.5 333.9 18.3
2002-11-18 08:36:02 51°20.228 2°50.054 345.3 13.5 333.7 18.6
2002-11-18 08:36:08 51°20.247 2°50.038 345.7 13.5 333.7 18.8
2002-11-18 08:36:13 51°20.264 2°50.025 345.5 13.4 333.6 19
2002-11-18 08:36:18 51°20.281 2°50.011 345.5 13.4 333.3 19.3
2002-11-18 08:36:22 51°20.294 2°50 344.5 13.4 333 19.6
2002-11-18 08:36:27 51°20.31 2°49.986 344 13.4 331.6 19.8
2002-11-18 08:36:33 51°20.33 2°49.969 343.5 13.4 331.6 20.1
2002-11-18 08:36:38 51°20.346 2°49.954 342.3 13.4 331.3 20.3
2002-11-18 08:36:42 51°20.359 2°49.942 341.3 13.5 329.7 20.5
2002-11-18 08:36:48 51°20.379 2°49.922 340.5 13.5 328.7 20.8
2002-11-18 08:36:53 51°20.394 2°49.907 340.2 13.5 327.9 21
2002-11-18 08:36:58 51°20.41 2°49.891 339.8 13.5 327.8 21.3
2002-11-18 08:37:02 51°20.423 2°49.878 339.5 13.5 327.7 21.6
2002-11-18 08:37:08 51°20.442 2°49.858 339.5 13.5 327.4 21.8
2002-11-18 08:37:13 51°20.457 2°49.842 339.7 13.5 327.4 22.1
2002-11-18 08:37:18 51°20.473 2°49.826 338.8 13.5 327.4 22.4
2002-11-18 08:37:23 51°20.489 2°49.808 337.5 13.6 326.4 22.6
2002-11-18 08:37:28 51°20.504 2°49.791 336.3 13.6 325 22.7
2002-11-18 08:37:33 51°20.519 2°49.773 335.2 13.6 323.8 22.9
2002-11-18 08:37:38 51°20.534 2°49.755 334.8 13.6 323 23
2002-11-18 08:37:42 51°20.546 2°49.74 333.2 13.6 322.1 23
2002-11-18 08:37:48 51°20.563 2°49.716 332 13.6 320.7 23.2
2002-11-18 08:37:53 51°20.577 2°49.696 331.3 13.6 319.8 23.3
2002-11-18 08:37:58 51°20.592 2°49.676 330.5 13.7 319.2 23.4
2002-11-18 08:38:02 51°20.604 2°49.66 330 13.7 318.6 23.4
2002-11-18 08:38:08 51°20.62 2°49.636 330 13.8 318.2 23.3
2002-11-18 08:38:13 51°20.634 2°49.614 328.8 13.8 317.9 23.4
2002-11-18 08:38:18 51°20.648 2°49.593 327.8 13.8 316.8 23.4
2002-11-18 08:38:23 51°20.662 2°49.572 327.2 13.8 316.3 23.5
2002-11-18 08:38:28 51°20.676 2°49.551 327 13.9 315.8 23.5
2002-11-18 08:38:33 51°20.69 2°49.529 326.7 13.9 315.6 23.5
2002-11-18 08:38:38 51°20.703 2°49.507 326.7 13.9 315.2 23.4
2002-11-18 08:38:42 51°20.714 2°49.49 326.7 13.9 315.3 23.6
2002-11-18 08:38:48 51°20.731 2°49.464 326.7 13.9 315.3 23.6
2002-11-18 08:38:53 51°20.745 2°49.442 326.7 13.9 315.2 23.6
2002-11-18 08:38:58 51°20.758 2°49.42 326.8 13.9 315.1 23.6
2002-11-18 08:39:02 51°20.769 2°49.403 327 13.9 315.3 23.5
2002-11-18 08:39:08 51°20.786 2°49.377 327.2 13.9 315.5 23.5
2002-11-18 08:39:13 51°20.8 2°49.356 326.8 13.9 315.4 23.5
2002-11-18 08:39:18 51°20.813 2°49.334 326.3 13.9 315.2 23.6
2002-11-18 08:39:23 51°20.827 2°49.311 325.5 14 314.4 23.4
2002-11-18 08:39:28 51°20.841 2°49.289 325.3 14 314.1 23.4
2002-11-18 08:39:33 51°20.854 2°49.267 326.2 14 314.3 23.5
2002-11-18 08:39:38 51°20.868 2°49.246 327 14 314.6 23.5
2002-11-18 08:39:42 51°20.879 2°49.229 327.7 14 315.8 23.2
2002-11-18 08:39:48 51°20.896 2°49.204 328.2 13.9 316.2 23.2
2002-11-18 08:39:53 51°20.91 2°49.183 328.2 13.9 316.9 22.9
2002-11-18 08:39:57 51°20.922 2°49.166 328.3 13.9 317 23
2002-11-18 08:40:02 51°20.936 2°49.145 328.7 13.9 317.2 23
2002-11-18 08:40:08 51°20.953 2°49.12 329.2 13.9 317.5 22.8
2002-11-18 08:40:13 51°20.967 2°49.1 329.3 13.9 318.1 22.8
2002-11-18 08:40:18 51°20.982 2°49.08 330.5 13.9 318.4 22.8
2002-11-18 08:40:23 51°20.997 2°49.061 332 13.8 320.2 22.3
2002-11-18 08:40:28 51°21.011 2°49.041 332.7 13.8 320.5 20.8
2002-11-18 08:40:33 51°21.026 2°49.023 333.8 13.7 321.8 21
2002-11-18 08:40:38 51°21.042 2°49.006 335.5 13.7 322.8 21.3
2002-11-18 08:40:42 51°21.054 2°48.992 337 13.6 324.9 21.5
2002-11-18 08:40:48 51°21.073 2°48.972 338.5 13.6 325.3 21.5
2002-11-18 08:40:53 51°21.09 2°48.957 340.7 13.5 328.2 21.5
2002-11-18 08:40:58 51°21.106 2°48.942 341.7 13.5 329.5 21.4
2002-11-18 08:41:02 51°21.119 2°48.932 343.7 13.5 331.1 21.4
2002-11-18 08:41:08 51°21.139 2°48.915 344.8 13.5 332 21.3
2002-11-18 08:41:13 51°21.156 2°48.903 345.8 13.5 333.9 21.2
2002-11-18 08:41:18 51°21.173 2°48.89 346.5 13.5 335 21.3
2002-11-18 08:41:23 51°21.191 2°48.879 348.3 13.5 335.5 21.3
2002-11-18 08:41:27 51°21.205 2°48.871 350.8 13.4 338.7 21.3
2002-11-18 08:41:33 51°21.226 2°48.862 354.3 13.4 342.1 21.4
2002-11-18 08:41:37 51°21.24 2°48.857 357.3 13.3 345.3 21.3
2002-11-18 08:41:41 51°21.255 2°48.853 359.3 13.2 349.2 21.6
2002-11-18 08:41:47 51°21.276 2°48.847   13.1 350.5 21.7
2002-11-18 08:41:53 51°21.297 2°48.843 1 13 351.4 21.8
2002-11-18 08:41:57 51°21.312 2°48.84 1.7 13 352.2 21.8
2002-11-18 08:42:03 51°21.333 2°48.835 2 13 352.5 21.9
2002-11-18 08:42:07 51°21.348 2°48.833 1.8 13 352.8 22.1
2002-11-18 08:42:13 51°21.369 2°48.828 2.2 13 352.8 21.9
2002-11-18 08:42:17 51°21.384 2°48.825 2 13 352.9 22
2002-11-18 08:42:21 51°21.398 2°48.822 1.7 13.1 352.3 22.4
2002-11-18 08:42:27 51°21.42 2°48.817 1.3 13.1 352.4 22.3
2002-11-18 08:42:33 51°21.441 2°48.813 1.2 13.1 352 22.6
2002-11-18 08:42:38 51°21.459 2°48.809 1.3 13 352.2 22.6
2002-11-18 08:42:42 51°21.473 2°48.806 1.3 13 352.2 22.8
2002-11-18 08:42:48 51°21.495 2°48.801 1.5 13 352.4 23
2002-11-18 08:42:53 51°21.513 2°48.797 1.5 13.1 352.4 23.2
2002-11-18 08:42:58 51°21.531 2°48.794 1.7 13.1 352.4 23.1
2002-11-18 08:43:02 51°21.545 2°48.791 1.7 13 352.5 23.4
2002-11-18 08:43:08 51°21.567 2°48.786 1.3 13 352.7 23.5
2002-11-18 08:43:13 51°21.585 2°48.782 1.5 13.1 352.6 23.7
2002-11-18 08:43:18 51°21.602 2°48.778 0.7 13.1 352.4 23.6
2002-11-18 08:43:22 51°21.617 2°48.775 0.3 13.1 351.6 23.7
2002-11-18 08:43:28 51°21.638 2°48.77 0.5 13.1 351.6 23.7
2002-11-18 08:43:33 51°21.656 2°48.766 1 13.2 351.8 -999
2002-11-18 08:43:38 51°21.674 2°48.761 0.7 13.2 351.8 -999
2002-11-18 08:43:44 51°21.696 2°48.757 0.7 13.2 351.7 -999
2002-11-18 08:43:49 51°21.714 2°48.753 0.7 13.1 351.9 -999
2002-11-18 08:43:54 51°21.732 2°48.749 1 13.2 352.4 23.9
2002-11-18 08:43:59 51°21.75 2°48.746 0.7 13.2 352.8 -999
2002-11-18 08:44:04 51°21.768 2°48.741 0.5 13.1 352.4 -999
2002-11-18 08:44:09 51°21.786 2°48.737   13.1 351.7 24.1
2002-11-18 08:44:14 51°21.804 2°48.732 359.8 13.1 351.3 -999
2002-11-18 08:44:18 51°21.818 2°48.729 0.3 13.1 351.4 -999
2002-11-18 08:44:24 51°21.84 2°48.724 0.3 13.1 351.6 24
2002-11-18 08:44:29 51°21.858 2°48.72 0.3 13.1 351.7 -999
2002-11-18 08:44:34 51°21.876 2°48.716 0.3 13.1 351.8 -999
2002-11-18 08:44:38 51°21.89 2°48.713 0.3 13.1 352.1 -999
2002-11-18 08:44:44 51°21.912 2°48.708 0.5 13.1 352 -999
2002-11-18 08:44:49 51°21.93 2°48.704 0.5 13.2 352.2 -999
2002-11-18 08:44:54 51°21.948 2°48.7 0.5 13.2 352.3 -999
2002-11-18 08:44:59 51°21.966 2°48.695 0.2 13.2 352.2 -999
2002-11-18 08:45:04 51°21.984 2°48.692 0.5 13.1 351.8 -999
2002-11-18 08:45:09 51°22.002 2°48.688 0.8 13.1 352.5 -999
2002-11-18 08:45:14 51°22.02 2°48.684 0.5 13.1 352.2 -999
2002-11-18 08:45:19 51°22.038 2°48.68 0.2 13.2 352.1 -999
2002-11-18 08:45:24 51°22.056 2°48.676   13.2 352.2 -999
2002-11-18 08:45:29 51°22.074 2°48.672 0.3 13.1 352 -999
2002-11-18 08:45:34 51°22.092 2°48.668 359.8 13.2 352.1 -999
2002-11-18 08:45:38 51°22.107 2°48.664   13.2 351.7 -999
2002-11-18 08:45:43 51°22.125 2°48.66 0.2 13.3 352 -999
2002-11-18 08:45:49 51°22.147 2°48.655   13.3 352 -999
2002-11-18 08:45:53 51°22.161 2°48.652 0.2 13.2 352 -999
2002-11-18 08:45:59 51°22.182 2°48.647 359.8 13.1 352 -999
2002-11-18 08:46:04 51°22.201 2°48.644 0.8 13 352.6 23.4
2002-11-18 08:46:09 51°22.219 2°48.639 0.8 13.1 352.9 -999
2002-11-18 08:46:13 51°22.233 2°48.638 1.3 13.1 353.2 -999
2002-11-18 08:46:18 51°22.251 2°48.633 359.3 13.1 353.2 23.8
2002-11-18 08:46:23 51°22.269 2°48.63 0.5 13 351.3 23.6
2002-11-18 08:46:28 51°22.287 2°48.626 0.7 13.1 353.2 23.4
2002-11-18 08:46:34 51°22.309 2°48.621   13.1 351 23.6
2002-11-18 08:46:37 51°22.32 2°48.619   13.1 352.7 23
2002-11-18 08:46:43 51°22.341 2°48.612 359.7 13.1 350.6 22.3
2002-11-18 08:46:48 51°22.359 2°48.609 0.5 13.1 352.3 21.4
2002-11-18 08:46:53 51°22.377 2°48.604 359.7 13.1 351 20.4
2002-11-18 08:46:57 51°22.391 2°48.601 359.7 13.1 351.6 20
2002-11-18 08:47:03 51°22.412 2°48.595 359.3 13.1 351.2 19.4
2002-11-18 08:47:08 51°22.43 2°48.591 359.8 13 351.4 18.7
2002-11-18 08:47:13 51°22.448 2°48.587 359.5 13 351.1 18
2002-11-18 08:47:18 51°22.465 2°48.582 359.5 12.9 351.1 17.9
2002-11-18 08:47:22 51°22.48 2°48.578 0.3 13 351.2 17.5
2002-11-18 08:47:28 51°22.501 2°48.575 2 13 352.9 18.9
2002-11-18 08:47:33 51°22.519 2°48.573 3 12.9 354.1 18.5
2002-11-18 08:47:38 51°22.536 2°48.571 4 12.9 355.2 18.2
2002-11-18 08:47:42 51°22.551 2°48.569 4.3 12.9 356 18.1
2002-11-18 08:47:48 51°22.572 2°48.568 4.8 12.9 356.9 17.2
2002-11-18 08:47:53 51°22.59 2°48.566 5 12.9 356.9 16.1
2002-11-18 08:47:58 51°22.608 2°48.564 4.5 12.8 357 18.1
2002-11-18 08:48:01 51°22.618 2°48.563 4.3 12.8 356.6 18
2002-11-18 08:48:08 51°22.643 2°48.561 4.3 12.9 356.5 17.4
2002-11-18 08:48:13 51°22.661 2°48.559 4 12.9 356.2 16.5
2002-11-18 08:48:18 51°22.679 2°48.557 4.3 12.9 356 18.8
2002-11-18 08:48:21 51°22.689 2°48.556 3.8 12.8 356.1 18.7
2002-11-18 08:48:28 51°22.714 2°48.554 4.3 12.8 356.3 17.7
2002-11-18 08:48:33 51°22.732 2°48.551 4.5 12.8 356.5 17.2
2002-11-18 08:48:38 51°22.75 2°48.549 4 12.9 356.1 19.3
2002-11-18 08:48:42 51°22.764 2°48.547 3.7 12.8 355.7 19.4
2002-11-18 08:48:48 51°22.785 2°48.545 4 12.8 355.8 19.2
2002-11-18 08:48:53 51°22.803 2°48.543 4.2 12.9 355.9 18.3
2002-11-18 08:48:57 51°22.818 2°48.541 4 12.9 356.1 17.9
2002-11-18 08:49:01 51°22.832 2°48.54 4 12.9 356 17
2002-11-18 08:49:07 51°22.853 2°48.537 3.8 12.8 355.9 18.5
2002-11-18 08:49:13 51°22.874 2°48.534 3.3 12.8 355.4 18.8
2002-11-18 08:49:17 51°22.888 2°48.533 4 12.8 355.5 19.3
2002-11-18 08:49:21 51°22.903 2°48.531 4.2 12.9 355.9 19.8
2002-11-18 08:49:27 51°22.924 2°48.528 4.2 13 355.6 20.3
2002-11-18 08:49:33 51°22.945 2°48.526 3.8 12.9 355.5 20
2002-11-18 08:49:37 51°22.96 2°48.524 3.8 12.9 355.4 19.8
2002-11-18 08:49:41 51°22.974 2°48.522 4 12.9 355.4 20.7
2002-11-18 08:49:47 51°22.996 2°48.519 3.7 12.9 355.4 20.7
2002-11-18 08:49:53 51°23.017 2°48.516 4 13 355.7 20.2
2002-11-18 08:49:57 51°23.031 2°48.515 4.2 13 356 20.3
2002-11-18 08:50:02 51°23.049 2°48.513 3.8 12.9 355.7 19.2
2002-11-18 08:50:07 51°23.067 2°48.511 4.2 12.9 355.5 18.9
2002-11-18 08:50:13 51°23.088 2°48.508 4.2 12.9 355.7 20.8
2002-11-18 08:50:17 51°23.102 2°48.507 4 12.9 355.6 21.4
2002-11-18 08:50:21 51°23.116 2°48.505 4.2 12.9 355.7 21.5
2002-11-18 08:50:27 51°23.138 2°48.503 4.3 12.9 356 22
2002-11-18 08:50:33 51°23.159 2°48.5 4.2 12.9 355.8 21.8
2002-11-18 08:50:37 51°23.173 2°48.499 4.3 12.9 355.9 22
2002-11-18 08:50:41 51°23.188 2°48.497 4.7 13 356.1 21.2
2002-11-18 08:50:47 51°23.209 2°48.495 5.7 12.9 357 20
2002-11-18 08:50:53 51°23.231 2°48.494 6 12.9 357.7 22
2002-11-18 08:50:57 51°23.245 2°48.493 6.3 12.9 357.9 22.3
2002-11-18 08:51:01 51°23.26 2°48.492 6 13 357.7 20.5
2002-11-18 08:51:07 51°23.281 2°48.492 6 13 357.9 20.1
2002-11-18 08:51:13 51°23.302 2°48.49 5.8 13 357.9 21.5
2002-11-18 08:51:17 51°23.317 2°48.489 5.8 12.9 357.5 22.3
2002-11-18 08:51:21 51°23.331 2°48.488 6.2 12.9 357.6 22.6
2002-11-18 08:51:27 51°23.352 2°48.487 6 12.9 357.7 22.8
2002-11-18 08:51:33 51°23.374 2°48.486 6.7 12.9 358.3 22.5
2002-11-18 08:51:37 51°23.388 2°48.485 6.2 13 358.2 22.8
2002-11-18 08:51:41 51°23.402 2°48.485 5.7 12.9 357.8 23.1
2002-11-18 08:51:47 51°23.424 2°48.483 5.5 12.9 357.7 22.9
2002-11-18 08:51:53 51°23.445 2°48.481 5.8 12.8 357.4 23
2002-11-18 08:51:57 51°23.46 2°48.48 6.3 12.9 357.6 22.2
2002-11-18 08:52:01 51°23.474 2°48.48 6 12.9 358 22.1
2002-11-18 08:52:07 51°23.495 2°48.479 6.8 12.9 358.7 22.6
2002-11-18 08:52:13 51°23.516 2°48.478 6.7 12.9 358.9 22.9
2002-11-18 08:52:17 51°23.531 2°48.478 6.3 12.9 358.8 22.8
2002-11-18 08:52:21 51°23.545 2°48.476 5.8 12.9 358.2 22.5
2002-11-18 08:52:27 51°23.567 2°48.475 5.8 12.9 357.7 22.5
2002-11-18 08:52:33 51°23.588 2°48.475 6.7 12.9 358.4 22.8
2002-11-18 08:52:37 51°23.602 2°48.474 7.3 12.9 358.9 22.3
2002-11-18 08:52:42 51°23.62 2°48.474 7.5 12.9 359.6 21.9
2002-11-18 08:52:47 51°23.638 2°48.474 7.8 12.9 359.4 22
2002-11-18 08:52:53 51°23.659 2°48.473 7.8 12.9 359.5 21.4
2002-11-18 08:52:58 51°23.677 2°48.473 7.8 12.9 359.4 21.6
2002-11-18 08:53:01 51°23.688 2°48.473 8.2 12.9 359.3 22.6
2002-11-18 08:53:07 51°23.709 2°48.473 8.3 12.8 0.2 22.7
2002-11-18 08:53:13 51°23.731 2°48.473 7.8 12.9 359.9 22.3
2002-11-18 08:53:17 51°23.745 2°48.473 7.7 12.9 359.8 21.6
2002-11-18 08:53:21 51°23.759 2°48.473 7.5 12.9 359.9 20.8
2002-11-18 08:53:27 51°23.781 2°48.473 7.7 12.9 0.1 21.8
2002-11-18 08:53:33 51°23.802 2°48.473 8.3 12.9 0.4 22.5
2002-11-18 08:53:37 51°23.817 2°48.473 8 12.9 0.5 21.9
2002-11-18 08:53:41 51°23.831 2°48.473 8.2 12.9   20.8
2002-11-18 08:53:47 51°23.853 2°48.473 8 13 359.8 19.9
2002-11-18 08:53:53 51°23.875 2°48.473 8 13 359.9 21
2002-11-18 08:53:57 51°23.889 2°48.473 8 13 0.3 21.7
2002-11-18 08:54:03 51°23.91 2°48.474 8 13 0.2 22
2002-11-18 08:54:08 51°23.928 2°48.472 7.8 12.9 359.8 22.4
2002-11-18 08:54:12 51°23.943 2°48.473 7.7 13   22.7
2002-11-18 08:54:17 51°23.961 2°48.472 7.8 13 0.1 22.6
2002-11-18 08:54:21 51°23.975 2°48.473 8.2 13 0.3 22.8
2002-11-18 08:54:27 51°23.997 2°48.472 7.8 13 359.8 22.9
2002-11-18 08:54:33 51°24.018 2°48.473 8 13 0.2 22.3
2002-11-18 08:54:37 51°24.033 2°48.473 8.3 12.9 0.5 21.6
2002-11-18 08:54:43 51°24.054 2°48.474 8.5 12.9 0.9 21
2002-11-18 08:54:47 51°24.069 2°48.473 8.2 12.9 0.6 21.3
2002-11-18 08:54:53 51°24.09 2°48.474 8 13 0.4 20.8
2002-11-18 08:54:57 51°24.105 2°48.473 7.5 13.1 359.8 20.2
2002-11-18 08:55:01 51°24.119 2°48.473 7.3 13.1 359.8 21.3
2002-11-18 08:55:07 51°24.141 2°48.474 8 13   22.5
2002-11-18 08:55:12 51°24.159 2°48.474 7.8 13 0.4 22.6
2002-11-18 08:55:17 51°24.177 2°48.474 8 13 0.4 22.6
2002-11-18 08:55:21 51°24.191 2°48.474 8.7 13 0.9 23.2
2002-11-18 08:55:27 51°24.213 2°48.475 8.8 13 1.3 23
2002-11-18 08:55:33 51°24.235 2°48.476 9 13 1.6 23.4
2002-11-18 08:55:37 51°24.249 2°48.476 8 13.1 0.9 23.1
2002-11-18 08:55:41 51°24.264 2°48.476 7.8 13.1 0.3 23.1
2002-11-18 08:55:47 51°24.286 2°48.477 7.8 13 0.4 23.3
2002-11-18 08:55:53 51°24.307 2°48.477 7.7 13 0.4 23
2002-11-18 08:55:57 51°24.322 2°48.477 7.8 13 0.5 20.6
2002-11-18 08:56:01 51°24.336 2°48.476 7.7 13.1   22.5
2002-11-18 08:56:07 51°24.358 2°48.476 7.5 13.1 359.9 23.3
2002-11-18 08:56:12 51°24.376 2°48.476 7.3 13 359.7 -999
2002-11-18 08:56:17 51°24.394 2°48.476 7.8 13.1 359.9 23.5
2002-11-18 08:56:21 51°24.409 2°48.477 8.3 13.1 0.5 23.4
2002-11-18 08:56:27 51°24.431 2°48.477 8.2 13 0.8 23.8
2002-11-18 08:56:33 51°24.452 2°48.478 8.3 13 1 23.5
2002-11-18 08:56:37 51°24.467 2°48.478 8.3 13 0.8 22.6
2002-11-18 08:56:41 51°24.481 2°48.478 8 13 0.9 22.8
2002-11-18 08:56:47 51°24.503 2°48.479 8 13 0.7 22.4
2002-11-18 08:56:53 51°24.524 2°48.479 8 13 0.6 22.6
2002-11-18 08:56:57 51°24.539 2°48.479 7.8 13 0.5 22.6
2002-11-18 08:57:01 51°24.553 2°48.479 8.2 13.1 0.5 22.1
2002-11-18 08:57:08 51°24.579 2°48.48 7.7 13.1 0.5 -999
2002-11-18 08:57:13 51°24.597 2°48.48 8 13 0.6 -999
2002-11-18 08:57:18 51°24.615 2°48.481 8.2 13 1 -999
2002-11-18 08:57:23 51°24.633 2°48.481 8.2 13 1.1 -999
2002-11-18 08:57:29 51°24.655 2°48.482 7.8 13.1 1.2 -999
2002-11-18 08:57:33 51°24.669 2°48.482 7.7 13.1 0.7 -999
2002-11-18 08:57:38 51°24.687 2°48.482 7 13.1 0.2 -999
2002-11-18 08:57:43 51°24.705 2°48.481 6.8 13.1 359.7 -999
2002-11-18 08:57:48 51°24.724 2°48.481 7.3 13.1 359.6 -999
2002-11-18 08:57:53 51°24.742 2°48.481 7.2 13.1   -999
2002-11-18 08:57:57 51°24.756 2°48.482 7.3 13.1 0.2 -999
2002-11-18 08:58:03 51°24.778 2°48.481 7.7 13.1   -999
2002-11-18 08:58:08 51°24.796 2°48.482 7.8 13.1 0.3 -999
2002-11-18 08:58:13 51°24.815 2°48.482 7.5 13.1 0.2 -999
2002-11-18 08:58:18 51°24.833 2°48.482 7.7 13.1 0.1 -999
2002-11-18 08:58:23 51°24.851 2°48.482 8.2 13 0.3 -999
2002-11-18 08:58:28 51°24.869 2°48.482 8 13 0.6 -999
2002-11-18 08:58:33 51°24.887 2°48.483 8.2 13 0.5 -999
2002-11-18 08:58:38 51°24.905 2°48.483 8.2 13 0.7 -999
2002-11-18 08:58:43 51°24.923 2°48.483 7.8 13 0.7 -999
2002-11-18 08:58:48 51°24.941 2°48.484 8 13 0.6 -999
2002-11-18 08:58:53 51°24.959 2°48.484 8.2 13 0.7 -999
2002-11-18 08:58:57 51°24.974 2°48.485 8.2 13 0.9 -999
2002-11-18 08:59:03 51°24.995 2°48.485 7.8 13 0.6 -999
2002-11-18 08:59:08 51°25.013 2°48.485 8.2 13 0.4 -999
2002-11-18 08:59:14 51°25.035 2°48.485 8.2 13 0.5 -999
2002-11-18 08:59:18 51°25.05 2°48.486 8.3 13 0.5 -999
2002-11-18 08:59:23 51°25.068 2°48.486 8 13 0.9 -999
2002-11-18 08:59:28 51°25.086 2°48.486 8 13 0.7 -999
2002-11-18 08:59:33 51°25.104 2°48.487 7.8 13.1 0.6 -999
2002-11-18 08:59:38 51°25.122 2°48.487 7.5 13.1 0.2 -999
2002-11-18 08:59:43 51°25.14 2°48.486 7.3 13.1 359.8 -999
2002-11-18 08:59:48 51°25.159 2°48.486 7.3 13.1 359.9 -999
2002-11-18 08:59:53 51°25.177 2°48.486 7.7 13.2 359.9 -999
2002-11-18 08:59:58 51°25.195 2°48.486 7.7 13.2 0.1 -999
2002-11-18 09:00:03 51°25.213 2°48.487 8 13.1 0.1 -999
2002-11-18 09:00:08 51°25.232 2°48.487 7.8 13.1 0.7 -999
2002-11-18 09:00:13 51°25.25 2°48.487 7.8 13.1 0.5 -999
2002-11-18 09:00:18 51°25.268 2°48.487 8.2 13.1 0.6 -999
2002-11-18 09:00:23 51°25.286 2°48.488 8.2 13.1 0.8 -999
2002-11-18 09:00:28 51°25.304 2°48.488 7.8 13.1 0.7 -999
2002-11-18 09:00:33 51°25.322 2°48.489 7.8 13.1 0.8 -999
2002-11-18 09:00:38 51°25.34 2°48.489 8 13.1 0.9 -999
2002-11-18 09:00:43 51°25.359 2°48.489 7.7 13.1 1 -999
2002-11-18 09:00:48 51°25.377 2°48.489 8.2 13.1 0.9 -999
2002-11-18 09:00:53 51°25.395 2°48.49 8 13.1 1.2 -999
2002-11-18 09:00:58 51°25.413 2°48.49 8 13.1 0.7 -999
2002-11-18 09:01:03 51°25.431 2°48.491 8.3 13.1 1.1 -999
2002-11-18 09:01:08 51°25.449 2°48.491 8.2 13.1 1.1 -999
2002-11-18 09:01:13 51°25.468 2°48.492 8.2 13.1 1.4 -999
2002-11-18 09:01:18 51°25.486 2°48.492 7.8 13.1 1.2 -999
2002-11-18 09:01:23 51°25.504 2°48.493 7.8 13.1 0.9 -999
2002-11-18 09:01:28 51°25.521 2°48.493 8 13 0.9 -999
2002-11-18 09:01:33 51°25.539 2°48.494 8.2 12.9 1 -999
2002-11-18 09:01:38 51°25.557 2°48.495 8.3 12.7 1.3 -999
2002-11-18 09:01:43 51°25.574 2°48.495 7.8 12.4 1.2 -999
2002-11-18 09:01:48 51°25.59 2°48.495 8 12.1 1.1 -999
2002-11-18 09:01:53 51°25.606 2°48.496 8.2 11.6 1.4 -999
2002-11-18 09:01:58 51°25.621 2°48.497 8.8 11 2 -999
2002-11-18 09:02:03 51°25.635 2°48.498 8.5 10.4 1.9 -999
2002-11-18 09:02:08 51°25.649 2°48.498 8.3 10 1.9 -999
2002-11-18 09:02:13 51°25.662 2°48.499 7.8 9.8 1.2 -999
2002-11-18 09:02:17 51°25.672 2°48.5 7.7 9.4 1.5 -999
2002-11-18 09:02:23 51°25.687 2°48.5 7.3 9.1 0.9 -999
2002-11-18 09:02:28 51°25.699 2°48.5 7.2 8.9 1 -999
2002-11-18 09:02:33 51°25.711 2°48.501 9.3 8.6 1.4 -999
2002-11-18 09:02:37 51°25.72 2°48.503 12.3 8.4 4 -999
2002-11-18 09:02:43 51°25.733 2°48.506 15.7 8.2 7.1 -999
2002-11-18 09:02:48 51°25.744 2°48.51 19.7 8.1 11.2 -999
2002-11-18 09:02:53 51°25.755 2°48.515 23.7 7.9 15 -999
2002-11-18 09:02:57 51°25.763 2°48.52 26.5 7.8 18.7 -999
2002-11-18 09:03:03 51°25.775 2°48.527 28.3 7.8 20.7 -999
2002-11-18 09:03:08 51°25.785 2°48.534 29.5 7.7 22.7 -999
2002-11-18 09:03:13 51°25.794 2°48.541 30 7.7 24 -999
2002-11-18 09:03:18 51°25.804 2°48.548 30.3 7.6 24.6 -999
2002-11-18 09:03:23 51°25.813 2°48.555 30.2 7.6 25.2 -999
2002-11-18 09:03:28 51°25.822 2°48.563 29.5 7.5 24.9 -999
2002-11-18 09:03:33 51°25.832 2°48.57 28.8 7.5 25 -999
2002-11-18 09:03:38 51°25.841 2°48.576 27.8 7.5 23.7 -999
2002-11-18 09:03:43 51°25.851 2°48.582 26.7 7.5 22.8 -999
2002-11-18 09:03:48 51°25.86 2°48.588 25.7 7.4 21.9 -999
2002-11-18 09:03:53 51°25.87 2°48.594 25 7.4 20.7 -999
2002-11-18 09:03:58 51°25.879 2°48.6 24.8 7.4 20.6 -999
2002-11-18 09:04:03 51°25.889 2°48.605 24.3 7.4 19.8 -999
2002-11-18 09:04:08 51°25.899 2°48.611 24.2 7.4 19.3 -999
2002-11-18 09:04:13 51°25.908 2°48.616 23.8 7.4 19.3 -999
2002-11-18 09:04:18 51°25.918 2°48.621 23.3 7.4 18.6 -999
2002-11-18 09:04:23 51°25.928 2°48.626 22.5 7.4 17.7 -999
2002-11-18 09:04:29 51°25.939 2°48.632 21.8 7.4 17 -999
2002-11-18 09:04:33 51°25.947 2°48.635 21.3 7.4 17.1 -999
2002-11-18 09:04:38 51°25.956 2°48.64 21.3 7.1 16.7 -999
2002-11-18 09:04:43 51°25.965 2°48.643 21 6.8 16.5 -999
2002-11-18 09:04:49 51°25.975 2°48.647 20.5 6.4 15.6 -999
2002-11-18 09:04:53 51°25.981 2°48.649 19.7 6.2 15.1 -999
2002-11-18 09:04:58 51°25.989 2°48.652 17.2 5.7 12.9 -999
2002-11-18 09:05:03 51°25.996 2°48.653 13 5.4 9.6 -999
2002-11-18 09:05:09 51°26.003 2°48.654 8.8 5 5.8 -999
2002-11-18 09:05:13 51°26.008 2°48.654 4.5 4.7 2.7 -999
2002-11-18 09:05:19 51°26.015 2°48.653 0.8 4.3 356.5 -999
2002-11-18 09:05:24 51°26.02 2°48.651 357.3 4 353 -999
2002-11-18 09:05:29 51°26.025 2°48.649 354.3 3.8 349.5 -999
2002-11-18 09:05:33 51°26.029 2°48.648 351.8 3.6 347.6 -999
2002-11-18 09:05:39 51°26.034 2°48.644 349.3 3.4 343.3 -999
2002-11-18 09:05:43 51°26.037 2°48.642 347.2 3.3 339.6 -999
2002-11-18 09:05:49 51°26.042 2°48.639 345.3 3.1 337.4 -999
2002-11-18 09:05:53 51°26.045 2°48.637 343.3 2.9 335.3 -999
2002-11-18 09:05:59 51°26.049 2°48.633 341.5 2.8 331.9 -999
2002-11-18 09:06:03 51°26.051 2°48.63 340 2.7 329.1 -999
2002-11-18 09:06:09 51°26.055 2°48.627 338.7 2.6 327.2 -999
2002-11-18 09:06:13 51°26.057 2°48.624 337.3 2.5 325.2 -999
2002-11-18 09:06:17 51°26.058 2°48.622 335.7 2.3 323.1 -999
2002-11-18 09:06:23 51°26.061 2°48.618 334.2 2.2 321.2 -999
2002-11-18 09:06:29 51°26.064 2°48.614 332.7 2.2 318 23.7
2002-11-18 09:06:33 51°26.065 2°48.612 331.3 2.1 315.7 23.7
2002-11-18 09:06:39 51°26.068 2°48.608 329.8 2 313.8 -999
2002-11-18 09:06:43 51°26.069 2°48.606 328 1.9 312.8 -999
2002-11-18 09:06:49 51°26.071 2°48.602 326.5 1.9 310 -999
2002-11-18 09:06:54 51°26.073 2°48.598 325.2 1.8 308.5 -999
2002-11-18 09:06:59 51°26.074 2°48.595 324.2 1.8 308.8 -999
2002-11-18 09:07:03 51°26.075 2°48.593 323.2 1.8 305.4 -999
2002-11-18 09:07:09 51°26.076 2°48.589 322 1.7 304.3 -999
2002-11-18 09:07:14 51°26.077 2°48.586 321.2 1.7 301 -999
2002-11-18 09:07:19 51°26.079 2°48.583 320.3 1.6 300.9 -999
2002-11-18 09:07:23 51°26.08 2°48.581 319.2 1.6 298.6 -999
2002-11-18 09:07:29 51°26.081 2°48.577 318 1.5 297.1 -999
2002-11-18 09:07:33 51°26.082 2°48.575 317 1.5 294.3 -999
2002-11-18 09:07:39 51°26.082 2°48.571 315.3 1.5 291.2 -999
2002-11-18 09:07:43 51°26.083 2°48.569 314.2 1.5 290.3 -999
2002-11-18 09:07:49 51°26.084 2°48.565 312.3 1.5 288.4 -999
2002-11-18 09:07:53 51°26.084 2°48.562 310.8 1.4 286.3 -999
2002-11-18 09:07:59 51°26.085 2°48.559 309.2 1.4 284.8 -999
2002-11-18 09:08:03 51°26.085 2°48.557 307.8 1.4 282.2 -999
2002-11-18 09:08:09 51°26.085 2°48.553 306.7 1.3 280.3 -999
2002-11-18 09:08:13 51°26.085 2°48.551 305.3 1.3 280.5 -999
2002-11-18 09:08:19 51°26.085 2°48.547 304 1.3 275.2 -999
2002-11-18 09:08:23 51°26.086 2°48.545 302.7 1.3 273.3 -999
2002-11-18 09:08:29 51°26.086 2°48.542 301.3 1.3 272.3 -999
2002-11-18 09:08:33 51°26.086 2°48.539 300.3 1.3 272.4 -999
2002-11-18 09:08:39 51°26.086 2°48.536 299.2 1.3 271 -999
2002-11-18 09:08:43 51°26.086 2°48.534 298 1.3 270.3 -999
2002-11-18 09:08:49 51°26.085 2°48.53 297 1.2 269.1 -999
2002-11-18 09:08:53 51°26.085 2°48.528 295.5 1.2 265.5 -999
2002-11-18 09:08:59 51°26.085 2°48.525 294.3 1.2 266 -999
2002-11-18 09:09:03 51°26.085 2°48.523 293.3 1.2 262.4 -999
2002-11-18 09:09:09 51°26.085 2°48.52 292.2 1.1 262.7 -999
2002-11-18 09:09:14 51°26.084 2°48.518 291.5 1.1 255.1 -999
2002-11-18 09:09:17 51°26.084 2°48.516 292 1 256.1 23.7
2002-11-18 09:09:21 51°26.084 2°48.515 291.3 1 253.8 23.5
2002-11-18 09:09:27 51°26.083 2°48.512 291.7 1 252.7 23.1
2002-11-18 09:09:33 51°26.083 2°48.51 291.2 0.9 254.6 22.7
2002-11-18 09:09:38 51°26.082 2°48.508 291 1 250.1 22.4
2002-11-18 09:09:42 51°26.082 2°48.506 290.7 0.9 254.8 22.3
2002-11-18 09:09:47 51°26.082 2°48.504 290.2 1 249.5 22.4
2002-11-18 09:09:53 51°26.08 2°48.502 289.5 1 246.7 22.7
2002-11-18 09:09:57 51°26.08 2°48.501 288.7 0.9 247.8 23.1
2002-11-18 09:10:03 51°26.079 2°48.499 287.8 0.9 247.4 23.3
2002-11-18 09:10:07 51°26.079 2°48.498 287.5 0.9 244 23.4
2002-11-18 09:10:13 51°26.079 2°48.494 286.3 0.9 243.6 23.7
2002-11-18 09:10:17 51°26.078 2°48.493 285.7 1 250.5 23.8
2002-11-18 09:10:21 51°26.078 2°48.492 284.7 1 248.4 -999
2002-11-18 09:10:29 51°26.077 2°48.489 283.2 0.9 245.3 23.8
2002-11-18 09:10:33 51°26.076 2°48.488 282.3 0.9 239.7 -999
2002-11-18 09:10:38 51°26.075 2°48.486 281.3 0.9 240.5 -999
2002-11-18 09:10:43 51°26.075 2°48.485 280 0.9 236.6 -999
2002-11-18 09:10:49 51°26.074 2°48.483 278.8 0.9 236.2 -999
2002-11-18 09:10:53 51°26.073 2°48.481 277.5 0.9 235.2 -999
2002-11-18 09:10:59 51°26.073 2°48.479 276.8 0.9 237.3 -999
2002-11-18 09:11:03 51°26.072 2°48.479 276 0.9 233 -999
2002-11-18 09:11:09 51°26.071 2°48.477 275 0.8 231.3 -999
2002-11-18 09:11:14 51°26.07 2°48.476 274.5 0.8 225.1 -999
2002-11-18 09:11:19 51°26.07 2°48.474 274 0.8 232 -999
2002-11-18 09:11:23 51°26.069 2°48.473 273.2 0.8 228.7 -999
2002-11-18 09:11:29 51°26.068 2°48.472 272.7 0.8 229.4 -999
2002-11-18 09:11:33 51°26.067 2°48.471 271.8 0.8 221.3 -999
2002-11-18 09:11:39 51°26.066 2°48.469 271.7 0.8 227.9 -999
2002-11-18 09:11:43 51°26.066 2°48.468 271.2 0.8 224.3 -999
2002-11-18 09:11:49 51°26.065 2°48.466 270.5 0.8 226.5 -999
2002-11-18 09:11:53 51°26.064 2°48.466 270.2 0.8 224.1 -999
2002-11-18 09:11:59 51°26.063 2°48.464 269.7 0.8 224.8 -999
2002-11-18 09:12:03 51°26.063 2°48.463 269.5 0.7 224.5 -999
2002-11-18 09:12:09 51°26.061 2°48.462 269.2 0.8 219.9 -999
2002-11-18 09:12:14 51°26.061 2°48.461 268.8 0.7 224.4 -999
2002-11-18 09:12:19 51°26.06 2°48.46 268.7 0.8 219.2 -999
2002-11-18 09:12:23 51°26.059 2°48.459 268.7 0.8 220.7 -999
2002-11-18 09:12:29 51°26.058 2°48.458 268.3 0.7 219.9 -999
2002-11-18 09:12:33 51°26.058 2°48.457 267.8 0.8 217.1 -999
2002-11-18 09:12:39 51°26.057 2°48.456 267.3 0.7 216.1 -999
2002-11-18 09:12:43 51°26.056 2°48.455 267.3 0.7 217.1 -999
2002-11-18 09:12:49 51°26.055 2°48.454 267 0.7 216.9 -999
2002-11-18 09:12:53 51°26.054 2°48.453 266.7 0.7 209.4 -999
2002-11-18 09:12:59 51°26.053 2°48.453 266.3 0.7 206.3 -999
2002-11-18 09:13:03 51°26.052 2°48.452 266 0.7 204.1 -999
2002-11-18 09:13:09 51°26.051 2°48.451 265.7 0.7 205.7 -999
2002-11-18 09:13:13 51°26.051 2°48.451 265.7 0.7 204.7 -999
2002-11-18 09:13:19 51°26.05 2°48.45 265.3 0.7 207.3 -999
2002-11-18 09:13:23 51°26.049 2°48.449 265.3 0.7 207.2 -999
2002-11-18 09:13:29 51°26.048 2°48.449 265 0.7 201.2 -999
2002-11-18 09:13:33 51°26.047 2°48.448 264.8 0.7 199.5 -999
2002-11-18 09:13:38 51°26.046 2°48.448 264.3 0.7 198.2 -999
2002-11-18 09:13:44 51°26.045 2°48.448 263.7 0.7 192.4 -999
2002-11-18 09:13:49 51°26.044 2°48.447 263.5 0.6 194.8 -999
2002-11-18 09:13:53 51°26.044 2°48.447 263.3 0.7 195.3 -999
2002-11-18 09:13:57 51°26.043 2°48.446 262.8 0.7 194.6 -999
2002-11-18 09:14:03 51°26.042 2°48.446 262.3 0.7 193.6 -999
2002-11-18 09:14:07 51°26.041 2°48.446 262.2 0.6 193.3 23.4
2002-11-18 09:14:13 51°26.04 2°48.445 261.5 0.6 194.4 23
2002-11-18 09:14:17 51°26.039 2°48.445 261.5 0.6 191.7 22.8
2002-11-18 09:14:21 51°26.038 2°48.445 261.2 0.6 188.3 22.8
2002-11-18 09:14:27 51°26.037 2°48.445 260.2 0.7 186.5 22.9
2002-11-18 09:14:33 51°26.037 2°48.444 259.8 0.7 188.4 23.3
2002-11-18 09:14:37 51°26.036 2°48.444 259.5 0.6 189.6 23.5
2002-11-18 09:14:41 51°26.035 2°48.444 259 0.6 187.2 23.6
2002-11-18 09:14:47 51°26.034 2°48.444 258.5 0.7 185.3 23.8
2002-11-18 09:14:53 51°26.033 2°48.444 258 0.6 189.6 -999
2002-11-18 09:14:59 51°26.032 2°48.444 257.2 0.7 185.9 -999
2002-11-18 09:15:03 51°26.031 2°48.444 256.5 0.6 184.2 -999
2002-11-18 09:15:09 51°26.03 2°48.444 255.7 0.6 183.8 -999
2002-11-18 09:15:13 51°26.029 2°48.444 254.7 0.6 183.2 -999
2002-11-18 09:15:19 51°26.028 2°48.444 254 0.7 180.6 -999
2002-11-18 09:15:23 51°26.028 2°48.444 253 0.6 182.4 -999
2002-11-18 09:15:29 51°26.026 2°48.444 252 0.7 175.8 -999
2002-11-18 09:15:33 51°26.026 2°48.444 251.3 0.6 174.7 -999
2002-11-18 09:15:38 51°26.025 2°48.444 250.2 0.6 177.1 -999
2002-11-18 09:15:43 51°26.024 2°48.444 249.5 0.6 180.7 -999
2002-11-18 09:15:49 51°26.023 2°48.445 248.5 0.7 170.8 -999
2002-11-18 09:15:53 51°26.022 2°48.445 247.3 0.6 169.8 -999
2002-11-18 09:15:59 51°26.021 2°48.446 246.3 0.7 167 -999
2002-11-18 09:16:03 51°26.02 2°48.446 245.2 0.6 166.5 -999
2002-11-18 09:16:09 51°26.019 2°48.447 244.5 0.7 163.5 -999
2002-11-18 09:16:13 51°26.019 2°48.447 243.5 0.6 165.8 -999
2002-11-18 09:16:19 51°26.018 2°48.447 242.7 0.6 167.9 -999
2002-11-18 09:16:23 51°26.017 2°48.448 241.8 0.6 165.9 -999
2002-11-18 09:16:29 51°26.016 2°48.448 241.2 0.6 163.4 -999
2002-11-18 09:16:33 51°26.015 2°48.448 240.2 0.7 164.3 -999
2002-11-18 09:16:39 51°26.014 2°48.449 239.2 0.6 166.6 -999
2002-11-18 09:16:43 51°26.013 2°48.45 238.3 0.7 159.3 -999
2002-11-18 09:16:49 51°26.012 2°48.45 237.5 0.7 156 -999
2002-11-18 09:16:54 51°26.012 2°48.45 236.5 0.7 156.7 -999
2002-11-18 09:16:59 51°26.011 2°48.451 235.7 0.7 159 -999
2002-11-18 09:17:04 51°26.01 2°48.451 234.8 0.6 163.1 -999
2002-11-18 09:17:09 51°26.009 2°48.451 233.8 0.6 164.4 -999
2002-11-18 09:17:14 51°26.009 2°48.452 233.2 0.6 162.6 -999
2002-11-18 09:17:19 51°26.008 2°48.453 232.3 0.6 153.6 -999
2002-11-18 09:17:24 51°26.007 2°48.453 231.7 0.5 149.8 -999
2002-11-18 09:17:29 51°26.007 2°48.454 230.7 0.5 142 -999
2002-11-18 09:17:34 51°26.006 2°48.455 230 0.5 134.9 -999
2002-11-18 09:17:39 51°26.006 2°48.456 229.3 0.5 124.6 -999
2002-11-18 09:17:44 51°26.006 2°48.457 228.7 0.6 118.4 -999
2002-11-18 09:17:49 51°26.005 2°48.459 227.8 0.6 113.3 -999
2002-11-18 09:17:53 51°26.005 2°48.459 227 0.6 110.9 -999
2002-11-18 09:17:57 51°26.005 2°48.46 226 0.6 110.7 -999
2002-11-18 09:18:03 51°26.004 2°48.462 225.2 0.6 110.5 -999
2002-11-18 09:18:08 51°26.004 2°48.463 224.3 0.6 110.8 -999
2002-11-18 09:18:14 51°26.004 2°48.464 222.7 0.5 110.8 -999
2002-11-18 09:18:19 51°26.004 2°48.464 221.3 0.5 120.8 -999
2002-11-18 09:18:23 51°26.003 2°48.465 219.5 0.4 127.2 -999
2002-11-18 09:18:29 51°26.003 2°48.466 217.7 0.4 131 -999
2002-11-18 09:18:34 51°26.002 2°48.466 216.5 0.4 135.9 -999
2002-11-18 09:18:39 51°26.002 2°48.467 215.2 0.5 137.3 -999
2002-11-18 09:18:44 51°26.001 2°48.468 213.3 0.5 139.8 -999
2002-11-18 09:18:49 51°26.001 2°48.468 211.8 0.4 145.8 -999
2002-11-18 09:18:54 51°26.001 2°48.469 210.8 0.4 149.6 -999
2002-11-18 09:18:59 51°26 2°48.469 209.2 0.4 153.9 -999
2002-11-18 09:19:04 51°25.999 2°48.47 208.2 0.5 153.4 -999
2002-11-18 09:19:09 51°25.999 2°48.47 206.3 0.5 157.5 -999
2002-11-18 09:19:14 51°25.998 2°48.471 205 0.5 156.5 -999
2002-11-18 09:19:18 51°25.998 2°48.471 203.5 0.5 160.6 -999
2002-11-18 09:19:24 51°25.997 2°48.471 202 0.6 160.7 -999
2002-11-18 09:19:29 51°25.996 2°48.471 200.7 0.5 167.3 -999
2002-11-18 09:19:34 51°25.995 2°48.471 199.2 0.6 165.7 -999
2002-11-18 09:19:39 51°25.995 2°48.471 197.3 0.6 172.6 -999
2002-11-18 09:19:44 51°25.994 2°48.472 195.8 0.7 166 -999
2002-11-18 09:19:49 51°25.993 2°48.472 193.7 0.7 170.3 -999
2002-11-18 09:19:54 51°25.992 2°48.472 191.8 0.7 171.9 -999
2002-11-18 09:19:59 51°25.991 2°48.473 190.7 0.7 172.2 -999
2002-11-18 09:20:04 51°25.99 2°48.473 188.8 0.7 170.8 -999
2002-11-18 09:20:09 51°25.989 2°48.473 187.2 0.7 169.6 -999
2002-11-18 09:20:13 51°25.988 2°48.473 185.7 0.8 167.6 -999
2002-11-18 09:20:19 51°25.987 2°48.473 184 0.8 169.8 -999
2002-11-18 09:20:23 51°25.986 2°48.473 182 0.8 173.2 -999
2002-11-18 09:20:29 51°25.984 2°48.474 180.7 0.8 170.2 -999
2002-11-18 09:20:33 51°25.983 2°48.474 178.8 0.8 173.3 -999
2002-11-18 09:20:39 51°25.982 2°48.474 177 0.8 170 -999
2002-11-18 09:20:43 51°25.981 2°48.475 175.2 0.8 168.9 -999
2002-11-18 09:20:49 51°25.98 2°48.475 173.7 0.9 169.6 -999
2002-11-18 09:20:53 51°25.979 2°48.475 172 0.9 167.6 -999
2002-11-18 09:20:59 51°25.977 2°48.476 169.8 0.9 168.4 -999
2002-11-18 09:21:04 51°25.975 2°48.477 167.5 1.1 165 -999
2002-11-18 09:21:09 51°25.973 2°48.478 163.8 1.4 162.1 -999
2002-11-18 09:21:13 51°25.971 2°48.479 159.5 1.5 159 -999
2002-11-18 09:21:19 51°25.969 2°48.481 155.2 1.7 156 -999
2002-11-18 09:21:23 51°25.967 2°48.482 150.7 1.8 154.9 -999
2002-11-18 09:21:29 51°25.964 2°48.485 146.3 1.8 152.4 -999
2002-11-18 09:21:34 51°25.962 2°48.486 143.2 1.8 150.9 -999
2002-11-18 09:21:39 51°25.96 2°48.489 140.7 1.7 148.2 -999
2002-11-18 09:21:44 51°25.958 2°48.491 137.8 1.7 144.6 -999
2002-11-18 09:21:49 51°25.956 2°48.494 135.3 1.8 143.8 -999
2002-11-18 09:21:54 51°25.954 2°48.495 133.3 1.7 143.1 -999
2002-11-18 09:21:59 51°25.953 2°48.498 131.8 1.7 142 -999
2002-11-18 09:22:04 51°25.951 2°48.5 129.8 1.6 140.8 -999
2002-11-18 09:22:09 51°25.949 2°48.503 127.8 1.6 140 -999
2002-11-18 09:22:14 51°25.948 2°48.505 125.8 1.6 138.7 -999
2002-11-18 09:22:18 51°25.946 2°48.507 123.8 1.6 135.4 -999
2002-11-18 09:22:24 51°25.945 2°48.51 121.8 1.6 134.2 -999
2002-11-18 09:22:29 51°25.943 2°48.512 119.8 1.5 133.4 -999
2002-11-18 09:22:34 51°25.942 2°48.515 118 1.5 131.1 -999
2002-11-18 09:22:39 51°25.941 2°48.518 115.8 1.5 128.4 -999
2002-11-18 09:22:44 51°25.939 2°48.521 113.8 1.5 125.4 -999
2002-11-18 09:22:49 51°25.938 2°48.523 111.8 1.5 123 -999
2002-11-18 09:22:54 51°25.937 2°48.526 109.8 1.4 121.9 -999
2002-11-18 09:22:58 51°25.936 2°48.528 107.5 1.4 120.8 -999
2002-11-18 09:23:04 51°25.935 2°48.531 105.7 1.4 119 -999
2002-11-18 09:23:09 51°25.935 2°48.534 103 1.4 119.3 -999
2002-11-18 09:23:14 51°25.934 2°48.537 100.8 1.4 115 -999
2002-11-18 09:23:18 51°25.934 2°48.539 98.5 1.4 113.1 -999
2002-11-18 09:23:24 51°25.932 2°48.542 96.8 1.3 113 -999
2002-11-18 09:23:29 51°25.932 2°48.545 95.7 1.3 110.9 -999
2002-11-18 09:23:34 51°25.931 2°48.548 94 1.3 110.5 -999
2002-11-18 09:23:39 51°25.931 2°48.55 92.7 1.3 112.1 -999
2002-11-18 09:23:44 51°25.93 2°48.552 91.3 1.3 109.7 -999
2002-11-18 09:23:49 51°25.93 2°48.555 90.2 1.2 108.7 -999
2002-11-18 09:23:54 51°25.929 2°48.557 88.8 1.2 106.7 -999
2002-11-18 09:23:59 51°25.929 2°48.56 87.3 1.2 106.3 -999
2002-11-18 09:24:04 51°25.928 2°48.562 86.2 1.2 107.6 -999
2002-11-18 09:24:09 51°25.928 2°48.565 84.7 1.1 101.7 -999
2002-11-18 09:24:14 51°25.928 2°48.567 83.5 1.1 99.6 -999
2002-11-18 09:24:19 51°25.927 2°48.569 81.8 1.1 98.3 -999
2002-11-18 09:24:23 51°25.927 2°48.571 80.2 1.1 97.3 -999
2002-11-18 09:24:29 51°25.927 2°48.574 78.3 1.1 97 -999
2002-11-18 09:24:34 51°25.927 2°48.576 76.3 1.1 97 -999
2002-11-18 09:24:38 51°25.927 2°48.578 74.7 1 92.5 -999
2002-11-18 09:24:44 51°25.927 2°48.581 72.7 1.1 92.8 -999
2002-11-18 09:24:49 51°25.927 2°48.583 71 1.1 88.9 -999
2002-11-18 09:24:54 51°25.926 2°48.585 69 1.1 92.1 -999
2002-11-18 09:24:59 51°25.927 2°48.588 67.3 1 88.4 -999
2002-11-18 09:25:04 51°25.927 2°48.59 65.2 1.1 90.5 -999
2002-11-18 09:25:09 51°25.927 2°48.592 63.2 1 84.5 -999
2002-11-18 09:25:14 51°25.927 2°48.594 61.7 1 84.6 -999
2002-11-18 09:25:18 51°25.927 2°48.596 59.8 0.9 79.8 -999
2002-11-18 09:25:24 51°25.927 2°48.598 58.2 1 81 -999
2002-11-18 09:25:29 51°25.928 2°48.6 56.2 0.9 78.3 -999
2002-11-18 09:25:34 51°25.928 2°48.602 54.5 0.9 77 -999
2002-11-18 09:25:39 51°25.928 2°48.604 52.7 1 79.1 -999
2002-11-18 09:25:44 51°25.929 2°48.606 51.2 0.9 75.8 -999
2002-11-18 09:25:49 51°25.929 2°48.608 50 0.9 75.1 -999
2002-11-18 09:25:54 51°25.929 2°48.61 48 0.9 75.3 -999
2002-11-18 09:25:59 51°25.93 2°48.612 46.5 0.9 74.2 -999
2002-11-18 09:26:04 51°25.93 2°48.613 45 0.9 70.2 -999
2002-11-18 09:26:09 51°25.931 2°48.615 42.5 1 64.1 -999
2002-11-18 09:26:13 51°25.932 2°48.617 38.8 1.1 54.3 -999
2002-11-18 09:26:19 51°25.934 2°48.619 34.3 1.3 48.2 -999
2002-11-18 09:26:23 51°25.935 2°48.621 29.2 1.5 39.2 -999
2002-11-18 09:26:29 51°25.938 2°48.623 24 1.6 32.3 -999
2002-11-18 09:26:34 51°25.94 2°48.625 19 1.7 27.2 -999
2002-11-18 09:26:39 51°25.942 2°48.626 13.3 1.8 20.9 -999
2002-11-18 09:26:44 51°25.945 2°48.626 8 1.9 13.9 -999
2002-11-18 09:26:49 51°25.948 2°48.627 2.5 1.9 7.8 -999
2002-11-18 09:26:54 51°25.95 2°48.626 357.2 2 1 -999
2002-11-18 09:26:59 51°25.954 2°48.626 352 2.1 353.6 -999
2002-11-18 09:27:04 51°25.956 2°48.624 346.7 2.2 348.4 -999
2002-11-18 09:27:09 51°25.96 2°48.622 342 2.3 343.5 -999
2002-11-18 09:27:14 51°25.963 2°48.62 337.8 2.4 339 -999
2002-11-18 09:27:19 51°25.966 2°48.617 335.5 2.5 334.6 -999
2002-11-18 09:27:24 51°25.969 2°48.615 333.8 2.5 332.9 -999
2002-11-18 09:27:29 51°25.972 2°48.612 332.7 2.4 331.4 -999
2002-11-18 09:27:34 51°25.974 2°48.61 331.8 2.4 329 -999
2002-11-18 09:27:39 51°25.977 2°48.608 331.3 2.2 329.3 -999
2002-11-18 09:27:44 51°25.979 2°48.605 330.5 2.1 328.6 -999
2002-11-18 09:27:49 51°25.981 2°48.603 329.8 2 327.5 -999
2002-11-18 09:27:54 51°25.984 2°48.6 329.2 2 325.7 -999
2002-11-18 09:27:59 51°25.986 2°48.598 329.2 2 325.7 -999
2002-11-18 09:28:04 51°25.988 2°48.596 329.5 1.9 326.7 -999
2002-11-18 09:28:09 51°25.99 2°48.593 329.7 1.8 326 -999
2002-11-18 09:28:14 51°25.992 2°48.591 330 1.8 327.7 -999
2002-11-18 09:28:19 51°25.994 2°48.589 330.2 1.8 325.9 -999
2002-11-18 09:28:23 51°25.996 2°48.587 330.7 1.8 325.6 -999
2002-11-18 09:28:29 51°25.998 2°48.585 331.2 1.7 325.7 -999
2002-11-18 09:28:33 51°26 2°48.584 331.2 1.6 326.5 -999
2002-11-18 09:28:39 51°26.002 2°48.582 331.3 1.5 328.5 -999
2002-11-18 09:28:44 51°26.004 2°48.58 331 1.5 328.9 -999
2002-11-18 09:28:49 51°26.005 2°48.578 330.7 1.5 327.4 -999
2002-11-18 09:28:54 51°26.007 2°48.576 330.5 1.4 327.6 -999
2002-11-18 09:28:59 51°26.008 2°48.575 330.2 1.4 326.5 -999
2002-11-18 09:29:04 51°26.01 2°48.573 329.8 1.3 328.6 -999
2002-11-18 09:29:09 51°26.011 2°48.572 329.3 1.3 325.1 -999
2002-11-18 09:29:14 51°26.013 2°48.57 329.2 1.3 328.2 -999
2002-11-18 09:29:19 51°26.014 2°48.568 328.8 1.3 325.1 -999
2002-11-18 09:29:24 51°26.016 2°48.567 328.5 1.3 325.1 -999
2002-11-18 09:29:29 51°26.017 2°48.566 328.2 1.2 323.7 -999
2002-11-18 09:29:34 51°26.018 2°48.564 328.3 1.2 324.5 -999
2002-11-18 09:29:39 51°26.02 2°48.562 328.5 1.2 323 -999